createdAt,value
2023-03-01T00:01:19.746Z,-1.40
2023-03-01T00:03:47.959Z,-1.40
2023-03-01T00:06:15.953Z,-1.40
2023-03-01T00:08:43.029Z,-1.40
2023-03-01T00:11:18.172Z,-1.40
2023-03-01T00:13:46.389Z,-1.40
2023-03-01T00:16:20.062Z,-1.40
2023-03-01T00:18:47.597Z,-1.50
2023-03-01T00:21:15.398Z,-1.50
2023-03-01T00:23:42.394Z,-1.60
2023-03-01T00:26:13.203Z,-1.60
2023-03-01T00:28:40.290Z,-1.60
2023-03-01T00:31:10.208Z,-1.60
2023-03-01T00:33:37.242Z,-1.70
2023-03-01T00:36:05.347Z,-1.70
2023-03-01T00:38:36.776Z,-1.60
2023-03-01T00:41:06.103Z,-1.60
2023-03-01T00:43:37.526Z,-1.60
2023-03-01T00:46:11.481Z,-1.70
2023-03-01T00:48:38.548Z,-1.70
2023-03-01T00:51:11.297Z,-1.70
2023-03-01T00:53:38.686Z,-1.70
2023-03-01T00:56:07.566Z,-1.70
2023-03-01T00:58:35.561Z,-1.70
2023-03-01T01:01:20.202Z,-1.80
2023-03-01T01:03:56.018Z,-1.70
2023-03-01T01:06:25.958Z,-1.70
2023-03-01T01:08:54.446Z,-1.70
2023-03-01T01:11:23.928Z,-1.80
2023-03-01T01:13:51.720Z,-1.70
2023-03-01T01:16:20.982Z,-1.60
2023-03-01T01:18:48.555Z,-1.60
2023-03-01T01:21:20.200Z,-1.60
2023-03-01T01:23:48.368Z,-1.60
2023-03-01T01:26:19.103Z,-1.60
2023-03-01T01:28:46.700Z,-1.60
2023-03-01T01:31:14.138Z,-1.50
2023-03-01T01:33:41.493Z,-1.60
2023-03-01T01:36:09.520Z,-1.50
2023-03-01T01:38:37.671Z,-1.50
2023-03-01T01:41:06.686Z,-1.50
2023-03-01T01:43:39.764Z,-1.50
2023-03-01T01:46:34.484Z,-1.50
2023-03-01T01:49:06.003Z,-1.50
2023-03-01T01:51:41.413Z,-1.50
2023-03-01T01:54:20.627Z,-1.50
2023-03-01T01:56:54.825Z,-1.50
2023-03-01T01:59:25.519Z,-1.60
2023-03-01T02:01:53.976Z,-1.60
2023-03-01T02:04:22.045Z,-1.50
2023-03-01T02:06:56.898Z,-1.60
2023-03-01T02:09:26.370Z,-1.60
2023-03-01T02:11:54.996Z,-1.50
2023-03-01T02:14:21.971Z,-1.40
2023-03-01T02:16:50.606Z,-1.40
2023-03-01T02:19:42.978Z,-1.50
2023-03-01T02:22:23.466Z,-1.60
2023-03-01T02:25:19.232Z,-1.60
2023-03-01T02:27:52.477Z,-1.50
2023-03-01T02:30:21.761Z,-1.50
2023-03-01T02:32:50.110Z,-1.60
2023-03-01T02:35:20.199Z,-1.50
2023-03-01T02:37:49.020Z,-1.60
2023-03-01T02:40:19.972Z,-1.60
2023-03-01T02:42:56.975Z,-1.60
2023-03-01T02:45:24.795Z,-1.70
2023-03-01T02:47:55.629Z,-1.60
2023-03-01T02:50:31.760Z,-1.70
2023-03-01T02:53:07.446Z,-1.70
2023-03-01T02:55:34.494Z,-1.70
2023-03-01T02:58:03.900Z,-1.70
2023-03-01T03:00:46.500Z,-1.70
2023-03-01T03:03:16.183Z,-1.70
2023-03-01T03:05:43.932Z,-1.80
2023-03-01T03:08:12.072Z,-1.70
2023-03-01T03:10:40.891Z,-1.70
2023-03-01T03:13:14.115Z,-1.80
2023-03-01T03:15:42.677Z,-1.90
2023-03-01T03:18:16.126Z,-1.90
2023-03-01T03:20:44.423Z,-1.90
2023-03-01T03:23:12.199Z,-1.90
2023-03-01T03:25:39.278Z,-1.90
2023-03-01T03:28:11.054Z,-2.00
2023-03-01T03:30:41.134Z,-1.90
2023-03-01T03:33:11.928Z,-1.90
2023-03-01T03:35:45.936Z,-1.90
2023-03-01T03:38:18.797Z,-1.80
2023-03-01T03:41:03.560Z,-1.80
2023-03-01T03:43:33.538Z,-1.80
2023-03-01T03:46:01.102Z,-1.70
2023-03-01T03:48:28.617Z,-1.70
2023-03-01T03:50:57.574Z,-1.60
2023-03-01T03:53:27.053Z,-1.50
2023-03-01T03:55:54.533Z,-1.50
2023-03-01T03:58:24.055Z,-1.60
2023-03-01T04:00:53.570Z,-1.60
2023-03-01T04:03:21.445Z,-1.60
2023-03-01T04:05:49.014Z,-1.50
2023-03-01T04:08:16.211Z,-1.40
2023-03-01T04:10:46.089Z,-1.40
2023-03-01T04:13:16.746Z,-1.40
2023-03-01T04:15:44.193Z,-1.50
2023-03-01T04:18:14.689Z,-1.60
2023-03-01T04:20:41.931Z,-1.60
2023-03-01T04:23:14.216Z,-1.50
2023-03-01T04:25:56.220Z,-1.60
2023-03-01T04:28:28.772Z,-1.50
2023-03-01T04:30:57.756Z,-1.50
2023-03-01T04:33:26.216Z,-1.60
2023-03-01T04:35:53.765Z,-1.50
2023-03-01T04:38:22.381Z,-1.60
2023-03-01T04:40:49.540Z,-1.70
2023-03-01T04:43:16.922Z,-1.60
2023-03-01T04:45:44.281Z,-1.60
2023-03-01T04:48:11.553Z,-1.60
2023-03-01T04:50:38.578Z,-1.70
2023-03-01T04:53:05.881Z,-1.70
2023-03-01T04:55:32.818Z,-1.70
2023-03-01T04:58:00.197Z,-1.70
2023-03-01T05:00:27.233Z,-1.70
2023-03-01T05:03:01.024Z,-1.70
2023-03-01T05:05:37.356Z,-1.60
2023-03-01T05:08:07.398Z,-1.70
2023-03-01T05:10:36.427Z,-1.70
2023-03-01T05:13:05.463Z,-1.70
2023-03-01T05:15:33.664Z,-1.80
2023-03-01T05:18:01.723Z,-1.80
2023-03-01T05:20:31.001Z,-1.70
2023-03-01T05:23:00.767Z,-1.70
2023-03-01T05:25:34.033Z,-1.80
2023-03-01T05:28:05.401Z,-1.80
2023-03-01T05:30:36.244Z,-1.70
2023-03-01T05:33:03.752Z,-1.70
2023-03-01T05:35:33.548Z,-1.70
2023-03-01T05:38:00.885Z,-1.70
2023-03-01T05:40:28.086Z,-1.70
2023-03-01T05:42:57.358Z,-1.70
2023-03-01T05:45:26.149Z,-1.60
2023-03-01T05:47:55.985Z,-1.60
2023-03-01T05:50:26.348Z,-1.60
2023-03-01T05:52:58.381Z,-1.60
2023-03-01T05:55:27.077Z,-1.50
2023-03-01T05:57:55.397Z,-1.40
2023-03-01T06:00:24.866Z,-1.40
2023-03-01T06:02:52.879Z,-1.30
2023-03-01T06:05:20.367Z,-1.30
2023-03-01T06:07:47.686Z,-1.20
2023-03-01T06:10:15.572Z,-1.10
2023-03-01T06:12:43.546Z,-1.10
2023-03-01T06:15:13.105Z,-0.90
2023-03-01T06:17:42.055Z,-0.80
2023-03-01T06:20:17.405Z,-0.70
2023-03-01T06:22:45.601Z,-0.70
2023-03-01T06:25:14.237Z,-0.60
2023-03-01T06:27:43.011Z,-0.50
2023-03-01T06:30:13.068Z,-0.40
2023-03-01T06:32:42.969Z,-0.40
2023-03-01T06:35:15.501Z,-0.30
2023-03-01T06:37:42.801Z,-0.10
2023-03-01T06:40:12.572Z,0.00
2023-03-01T06:42:42.000Z,0.20
2023-03-01T06:45:10.704Z,0.20
2023-03-01T06:47:38.034Z,0.30
2023-03-01T06:50:05.494Z,0.30
2023-03-01T06:52:32.894Z,0.60
2023-03-01T06:54:59.988Z,0.70
2023-03-01T06:57:27.890Z,0.90
2023-03-01T06:59:54.979Z,1.10
2023-03-01T07:02:22.757Z,1.10
2023-03-01T07:04:53.517Z,1.10
2023-03-01T07:07:21.105Z,1.30
2023-03-01T07:09:49.858Z,1.40
2023-03-01T07:12:17.404Z,1.80
2023-03-01T07:14:45.554Z,2.00
2023-03-01T07:17:12.811Z,2.30
2023-03-01T07:19:39.918Z,2.40
2023-03-01T07:22:08.909Z,2.50
2023-03-01T07:24:35.971Z,2.30
2023-03-01T07:27:03.448Z,2.80
2023-03-01T07:29:30.561Z,2.80
2023-03-01T07:31:57.925Z,2.40
2023-03-01T07:34:25.076Z,2.40
2023-03-01T07:36:52.523Z,2.20
2023-03-01T07:39:19.862Z,1.90
2023-03-01T07:41:47.343Z,2.30
2023-03-01T07:44:14.422Z,3.00
2023-03-01T07:46:41.749Z,3.50
2023-03-01T07:49:08.882Z,4.10
2023-03-01T07:51:36.167Z,4.00
2023-03-01T07:54:03.162Z,4.50
2023-03-01T07:56:30.838Z,4.80
2023-03-01T07:59:00.066Z,5.20
2023-03-01T08:01:27.414Z,5.30
2023-03-01T08:03:54.461Z,5.50
2023-03-01T08:06:21.733Z,5.70
2023-03-01T08:08:48.757Z,6.10
2023-03-01T08:11:16.684Z,6.00
2023-03-01T08:13:44.739Z,6.00
2023-03-01T08:16:14.499Z,5.80
2023-03-01T08:18:42.115Z,5.70
2023-03-01T08:21:15.111Z,5.30
2023-03-01T08:23:42.959Z,5.20
2023-03-01T08:26:19.617Z,5.60
2023-03-01T08:28:48.590Z,5.60
2023-03-01T08:31:24.511Z,5.80
2023-03-01T08:33:57.879Z,5.80
2023-03-01T08:36:27.854Z,5.80
2023-03-01T08:38:55.235Z,5.90
2023-03-01T08:41:22.927Z,5.90
2023-03-01T08:43:49.982Z,6.20
2023-03-01T08:46:17.371Z,6.40
2023-03-01T08:48:44.621Z,6.40
2023-03-01T08:51:20.349Z,6.50
2023-03-01T08:53:48.097Z,6.60
2023-03-01T08:56:16.691Z,6.70
2023-03-01T08:58:48.095Z,6.40
2023-03-01T09:01:18.274Z,6.50
2023-03-01T09:03:45.546Z,6.90
2023-03-01T09:06:13.573Z,6.80
2023-03-01T09:08:43.624Z,6.80
2023-03-01T09:11:28.545Z,7.30
2023-03-01T09:13:55.663Z,7.80
2023-03-01T09:16:23.881Z,7.50
2023-03-01T09:18:53.415Z,7.70
2023-03-01T09:21:38.736Z,7.40
2023-03-01T09:24:13.986Z,7.30
2023-03-01T09:26:41.287Z,6.50
2023-03-01T09:29:10.683Z,6.40
2023-03-01T09:31:38.293Z,6.80
2023-03-01T09:34:06.259Z,6.80
2023-03-01T09:36:34.447Z,6.00
2023-03-01T09:39:02.065Z,5.90
2023-03-01T09:41:35.327Z,5.90
2023-03-01T09:44:27.082Z,5.60
2023-03-01T09:46:54.461Z,5.50
2023-03-01T09:49:29.605Z,6.20
2023-03-01T09:52:10.763Z,6.80
2023-03-01T09:54:37.881Z,7.00
2023-03-01T09:57:25.213Z,7.10
2023-03-01T10:00:05.442Z,7.00
2023-03-01T10:03:03.502Z,6.70
2023-03-01T10:05:48.798Z,7.30
2023-03-01T10:08:28.146Z,7.50
2023-03-01T10:10:55.948Z,7.60
2023-03-01T10:13:25.852Z,7.70
2023-03-01T10:16:00.501Z,7.90
2023-03-01T10:18:31.106Z,7.60
2023-03-01T10:21:03.636Z,7.70
2023-03-01T10:23:33.315Z,7.40
2023-03-01T10:26:26.888Z,7.90
2023-03-01T10:28:59.884Z,8.40
2023-03-01T10:31:38.180Z,7.90
2023-03-01T10:34:20.666Z,7.70
2023-03-01T10:36:53.918Z,7.80
2023-03-01T10:39:24.453Z,8.10
2023-03-01T10:41:59.367Z,8.00
2023-03-01T10:44:47.583Z,8.40
2023-03-01T10:47:18.767Z,8.30
2023-03-01T10:50:03.424Z,8.60
2023-03-01T10:52:37.154Z,8.50
2023-03-01T10:55:38.522Z,8.30
2023-03-01T10:58:18.971Z,8.70
2023-03-01T11:01:04.959Z,8.50
2023-03-01T11:03:38.056Z,8.80
2023-03-01T11:06:12.997Z,9.20
2023-03-01T11:08:45.606Z,9.40
2023-03-01T11:11:32.951Z,9.50
2023-03-01T11:14:27.144Z,9.70
2023-03-01T11:17:34.692Z,9.00
2023-03-01T11:20:26.970Z,8.50
2023-03-01T11:22:57.695Z,8.80
2023-03-01T11:25:34.059Z,9.00
2023-03-01T11:28:04.307Z,9.00
2023-03-01T11:30:42.363Z,8.90
2023-03-01T11:33:09.649Z,8.60
2023-03-01T11:35:44.358Z,8.20
2023-03-01T11:38:39.316Z,7.90
2023-03-01T11:41:20.457Z,7.70
2023-03-01T11:44:02.519Z,8.20
2023-03-01T11:46:53.032Z,8.60
2023-03-01T11:49:39.130Z,8.90
2023-03-01T11:52:08.827Z,9.10
2023-03-01T11:55:12.702Z,9.50
2023-03-01T11:57:54.817Z,9.30
2023-03-01T12:00:26.744Z,9.10
2023-03-01T12:03:12.601Z,8.40
2023-03-01T12:05:42.911Z,8.30
2023-03-01T12:08:26.732Z,8.50
2023-03-01T12:11:04.404Z,9.00
2023-03-01T12:14:06.562Z,8.60
2023-03-01T12:17:13.034Z,8.90
2023-03-01T12:19:51.874Z,9.00
2023-03-01T12:22:52.348Z,9.30
2023-03-01T12:25:32.570Z,9.00
2023-03-01T12:28:19.703Z,9.10
2023-03-01T12:52:56.504Z,8.90
2023-03-01T12:55:32.682Z,9.20
2023-03-01T12:58:32.035Z,9.40
2023-03-01T13:01:07.457Z,9.40
2023-03-01T13:03:45.734Z,9.50
2023-03-01T13:06:50.631Z,9.10
2023-03-01T13:09:38.902Z,9.20
2023-03-01T13:12:47.704Z,9.20
2023-03-01T13:15:23.626Z,8.80
2023-03-01T13:17:53.893Z,8.60
2023-03-01T13:20:25.441Z,8.90
2023-03-01T13:23:08.025Z,8.80
2023-03-01T13:25:42.491Z,8.50
2023-03-01T13:28:45.356Z,8.80
2023-03-01T13:31:32.411Z,8.90
2023-03-01T13:34:08.321Z,8.90
2023-03-01T13:36:37.144Z,8.90
2023-03-01T13:39:27.547Z,8.80
2023-03-01T13:41:56.740Z,8.80
2023-03-01T13:44:28.470Z,8.70
2023-03-01T13:46:59.088Z,8.70
2023-03-01T13:49:46.526Z,8.60
2023-03-01T13:52:45.480Z,8.60
2023-03-01T13:55:15.707Z,8.80
2023-03-01T13:57:46.887Z,8.90
2023-03-01T14:00:36.041Z,8.70
2023-03-01T14:03:10.267Z,8.50
2023-03-01T14:05:38.849Z,8.40
2023-03-01T14:08:18.610Z,8.70
2023-03-01T14:11:00.777Z,8.70
2023-03-01T14:13:49.372Z,8.70
2023-03-01T14:16:32.765Z,8.60
2023-03-01T14:19:32.703Z,8.60
2023-03-01T14:22:24.373Z,8.60
2023-03-01T14:25:03.570Z,8.60
2023-03-01T14:27:37.424Z,8.50
2023-03-01T14:30:34.682Z,8.50
2023-03-01T14:33:04.912Z,8.30
2023-03-01T14:36:14.446Z,8.10
2023-03-01T14:38:56.547Z,8.00
2023-03-01T14:41:27.952Z,7.90
2023-03-01T14:44:02.377Z,7.80
2023-03-01T14:46:41.513Z,7.80
2023-03-01T14:49:21.473Z,7.70
2023-03-01T14:52:01.805Z,7.60
2023-03-01T14:54:30.883Z,7.50
2023-03-01T14:57:02.128Z,7.40
2023-03-01T14:59:29.651Z,7.30
2023-03-01T15:01:59.225Z,7.20
2023-03-01T15:04:29.103Z,7.10
2023-03-01T15:07:05.980Z,7.20
2023-03-01T15:09:37.521Z,7.10
2023-03-01T15:12:26.769Z,7.10
2023-03-01T15:15:03.236Z,7.00
2023-03-01T15:17:39.795Z,7.00
2023-03-01T15:20:19.519Z,6.80
2023-03-01T15:22:49.571Z,6.70
2023-03-01T15:25:21.384Z,6.60
2023-03-01T15:27:50.534Z,6.60
2023-03-01T15:30:20.710Z,6.60
2023-03-01T15:32:48.033Z,6.60
2023-03-01T15:35:34.267Z,6.50
2023-03-01T15:38:01.648Z,6.60
2023-03-01T15:40:36.480Z,6.70
2023-03-01T15:43:05.896Z,6.70
2023-03-01T15:45:38.882Z,6.80
2023-03-01T15:48:27.272Z,6.90
2023-03-01T15:51:02.480Z,7.10
2023-03-01T15:53:29.752Z,7.00
2023-03-01T15:55:56.744Z,6.90
2023-03-01T15:58:26.157Z,6.80
2023-03-01T16:01:02.105Z,6.80
2023-03-01T16:03:30.180Z,6.70
2023-03-01T16:05:57.889Z,6.70
2023-03-01T16:08:25.238Z,6.50
2023-03-01T16:10:52.618Z,6.40
2023-03-01T16:13:20.377Z,6.20
2023-03-01T16:15:47.897Z,6.10
2023-03-01T16:18:15.472Z,6.00
2023-03-01T16:20:42.427Z,5.90
2023-03-01T16:23:12.147Z,5.80
2023-03-01T16:25:39.295Z,5.70
2023-03-01T16:28:11.130Z,5.70
2023-03-01T16:30:40.565Z,5.60
2023-03-01T16:33:27.395Z,5.60
2023-03-01T16:35:56.645Z,5.50
2023-03-01T16:38:28.673Z,5.40
2023-03-01T16:40:55.784Z,5.30
2023-03-01T16:43:23.124Z,5.30
2023-03-01T16:45:50.236Z,5.20
2023-03-01T16:48:17.568Z,5.10
2023-03-01T16:50:45.093Z,5.10
2023-03-01T16:53:13.104Z,5.10
2023-03-01T16:55:46.500Z,5.00
2023-03-01T16:58:14.226Z,4.90
2023-03-01T17:00:41.319Z,5.00
2023-03-01T17:03:08.778Z,5.00
2023-03-01T17:05:35.883Z,5.00
2023-03-01T17:08:03.128Z,4.90
2023-03-01T17:10:30.113Z,4.80
2023-03-01T17:12:57.414Z,4.70
2023-03-01T17:15:25.016Z,4.60
2023-03-01T17:17:52.336Z,4.60
2023-03-01T17:20:19.526Z,4.50
2023-03-01T17:22:46.822Z,4.40
2023-03-01T17:25:13.802Z,4.50
2023-03-01T17:27:41.221Z,4.40
2023-03-01T17:30:11.631Z,4.30
2023-03-01T17:32:39.322Z,4.20
2023-03-01T17:35:08.065Z,4.20
2023-03-01T17:37:37.057Z,4.10
2023-03-01T17:40:04.346Z,4.00
2023-03-01T17:42:31.947Z,4.00
2023-03-01T17:45:00.664Z,3.90
2023-03-01T17:47:28.031Z,3.80
2023-03-01T17:49:55.120Z,3.70
2023-03-01T17:52:23.822Z,3.60
2023-03-01T17:54:51.080Z,3.60
2023-03-01T17:57:18.577Z,3.70
2023-03-01T17:59:45.516Z,3.70
2023-03-01T18:02:13.736Z,3.60
2023-03-01T18:04:40.896Z,3.60
2023-03-01T18:07:08.259Z,3.60
2023-03-01T18:09:35.346Z,3.60
2023-03-01T18:12:02.647Z,3.60
2023-03-01T18:14:34.210Z,3.60
2023-03-01T18:17:11.656Z,3.60
2023-03-01T18:19:43.593Z,3.60
2023-03-01T18:22:10.887Z,3.70
2023-03-01T18:24:38.318Z,3.70
2023-03-01T18:27:05.714Z,3.70
2023-03-01T18:29:32.924Z,3.80
2023-03-01T18:32:00.196Z,3.80
2023-03-01T18:34:28.763Z,3.80
2023-03-01T18:37:08.736Z,3.90
2023-03-01T18:39:36.476Z,3.90
2023-03-01T18:42:04.019Z,3.80
2023-03-01T18:44:31.073Z,3.80
2023-03-01T18:46:58.513Z,3.80
2023-03-01T18:49:26.486Z,3.80
2023-03-01T18:51:54.032Z,3.70
2023-03-01T18:54:21.193Z,3.70
2023-03-01T18:56:48.555Z,3.60
2023-03-01T18:59:15.511Z,3.60
2023-03-01T19:01:43.461Z,3.50
2023-03-01T19:04:11.346Z,3.50
2023-03-01T19:06:39.030Z,3.40
2023-03-01T19:09:07.690Z,3.40
2023-03-01T19:11:35.631Z,3.40
2023-03-01T19:14:04.378Z,3.30
2023-03-01T19:16:34.146Z,3.30
2023-03-01T19:19:03.137Z,3.20
2023-03-01T19:21:32.655Z,3.20
2023-03-01T19:24:02.345Z,3.20
2023-03-01T19:26:31.138Z,3.20
2023-03-01T19:28:58.804Z,3.20
2023-03-01T19:31:28.759Z,3.20
2023-03-01T19:34:10.604Z,3.10
2023-03-01T19:36:43.417Z,3.10
2023-03-01T19:39:13.352Z,3.10
2023-03-01T19:41:41.276Z,3.00
2023-03-01T19:44:08.737Z,2.90
2023-03-01T19:46:36.616Z,2.90
2023-03-01T19:49:03.953Z,2.90
2023-03-01T19:51:36.616Z,2.90
2023-03-01T19:54:05.831Z,2.90
2023-03-01T19:56:34.024Z,3.00
2023-03-01T19:59:04.308Z,2.90
2023-03-01T20:01:34.205Z,3.00
2023-03-01T20:04:02.468Z,3.00
2023-03-01T20:06:30.457Z,3.00
2023-03-01T20:08:58.684Z,3.00
2023-03-01T20:11:25.985Z,2.90
2023-03-01T20:13:52.969Z,2.80
2023-03-01T20:16:20.956Z,2.80
2023-03-01T20:18:48.101Z,2.80
2023-03-01T20:21:24.166Z,2.70
2023-03-01T20:23:52.153Z,2.70
2023-03-01T20:26:20.779Z,2.70
2023-03-01T20:28:50.246Z,2.60
2023-03-01T20:31:19.911Z,2.70
2023-03-01T20:33:46.974Z,2.70
2023-03-01T20:36:14.597Z,2.70
2023-03-01T20:38:41.528Z,2.70
2023-03-01T20:41:11.699Z,2.60
2023-03-01T20:43:41.032Z,2.50
2023-03-01T20:46:13.166Z,2.40
2023-03-01T20:48:43.139Z,2.40
2023-03-01T20:51:11.952Z,2.40
2023-03-01T20:53:39.063Z,2.30
2023-03-01T20:56:13.121Z,2.20
2023-03-01T20:58:41.017Z,2.20
2023-03-01T21:01:09.492Z,2.10
2023-03-01T21:03:36.721Z,2.10
2023-03-01T21:06:06.293Z,2.00
2023-03-01T21:08:34.389Z,2.00
2023-03-01T21:11:02.486Z,1.90
2023-03-01T21:13:31.105Z,1.80
2023-03-01T21:16:01.203Z,1.70
2023-03-01T21:18:30.226Z,1.60
2023-03-01T21:21:26.030Z,1.50
2023-03-01T21:23:54.390Z,1.50
2023-03-01T21:26:24.209Z,1.40
2023-03-01T21:28:55.855Z,1.40
2023-03-01T21:31:27.576Z,1.30
2023-03-01T21:33:56.930Z,1.20
2023-03-01T21:36:25.449Z,1.10
2023-03-01T21:38:53.485Z,1.20
2023-03-01T21:41:27.876Z,1.30
2023-03-01T21:43:57.508Z,1.40
2023-03-01T21:46:31.000Z,1.50
2023-03-01T21:48:58.855Z,1.60
2023-03-01T21:51:28.057Z,1.60
2023-03-01T21:53:56.298Z,1.60
2023-03-01T21:56:25.646Z,1.60
2023-03-01T21:58:53.012Z,1.60
2023-03-01T22:01:24.696Z,1.60
2023-03-01T22:03:51.800Z,1.70
2023-03-01T22:06:42.719Z,1.70
2023-03-01T22:09:12.113Z,1.70
2023-03-01T22:11:41.604Z,1.70
2023-03-01T22:14:09.450Z,1.70
2023-03-01T22:16:38.357Z,1.60
2023-03-01T22:19:07.057Z,1.60
2023-03-01T22:21:35.485Z,1.50
2023-03-01T22:24:04.002Z,1.50
2023-03-01T22:26:42.860Z,1.50
2023-03-01T22:29:17.443Z,1.50
2023-03-01T22:31:44.828Z,1.50
2023-03-01T22:34:12.819Z,1.50
2023-03-01T22:36:40.099Z,1.40
2023-03-01T22:39:07.565Z,1.40
2023-03-01T22:41:37.958Z,1.40
2023-03-01T22:44:05.156Z,1.30
2023-03-01T22:46:32.728Z,1.30
2023-03-01T22:48:59.864Z,1.30
2023-03-01T22:51:30.745Z,1.30
2023-03-01T22:53:58.185Z,1.30
2023-03-01T22:56:29.108Z,1.20
2023-03-01T22:58:58.648Z,1.10
2023-03-01T23:01:26.777Z,1.00
2023-03-01T23:03:54.217Z,1.00
2023-03-01T23:06:22.487Z,0.90
2023-03-01T23:08:51.289Z,1.00
2023-03-01T23:11:20.343Z,1.20
2023-03-01T23:13:48.018Z,1.30
2023-03-01T23:16:15.727Z,1.20
2023-03-01T23:18:43.384Z,1.10
2023-03-01T23:21:19.157Z,0.90
2023-03-01T23:23:49.868Z,0.70
2023-03-01T23:26:18.388Z,0.60
2023-03-01T23:28:45.510Z,0.50
2023-03-01T23:31:14.891Z,0.40
2023-03-01T23:33:45.147Z,0.20
2023-03-01T23:36:21.621Z,0.00
2023-03-01T23:38:51.332Z,-0.10
2023-03-01T23:41:22.781Z,-0.20
2023-03-01T23:43:51.455Z,-0.20
2023-03-01T23:46:21.055Z,-0.30
2023-03-01T23:48:48.650Z,-0.40
2023-03-01T23:51:17.868Z,-0.50
2023-03-01T23:53:56.181Z,-0.60
2023-03-01T23:56:30.531Z,-0.70
2023-03-01T23:59:01.692Z,-0.80
